createdAt,value
2022-10-07T00:02:24.703Z,93.41
2022-10-07T00:05:32.815Z,92.94
2022-10-07T00:08:40.953Z,92.63
2022-10-07T00:11:49.583Z,92.53
2022-10-07T00:14:57.355Z,92.99
2022-10-07T00:18:05.968Z,93.19
2022-10-07T00:21:14.279Z,92.88
2022-10-07T00:24:21.959Z,93.40
2022-10-07T00:27:30.485Z,93.50
2022-10-07T00:30:38.855Z,92.99
2022-10-07T00:33:46.451Z,93.19
2022-10-07T00:36:54.929Z,93.81
2022-10-07T00:40:03.336Z,94.12
2022-10-07T00:43:11.015Z,94.53
2022-10-07T00:46:19.930Z,94.32
2022-10-07T00:49:28.120Z,93.81
2022-10-07T00:52:36.215Z,94.32
2022-10-07T00:55:44.799Z,94.74
2022-10-07T00:58:52.739Z,94.43
2022-10-07T01:02:01.097Z,94.43
2022-10-07T01:05:09.330Z,94.78
2022-10-07T01:08:17.189Z,94.78
2022-10-07T01:11:25.208Z,94.95
2022-10-07T01:14:33.332Z,94.95
2022-10-07T01:17:41.741Z,94.74
2022-10-07T01:20:49.660Z,94.70
2022-10-07T01:23:57.591Z,94.38
2022-10-07T01:27:05.352Z,93.81
2022-10-07T01:30:12.770Z,93.81
2022-10-07T01:33:21.211Z,94.12
2022-10-07T01:36:29.404Z,93.71
2022-10-07T01:39:36.938Z,93.60
2022-10-07T01:42:45.269Z,94.53
2022-10-07T01:45:53.208Z,94.23
2022-10-07T01:49:00.995Z,94.32
2022-10-07T01:52:09.096Z,94.23
2022-10-07T01:55:16.496Z,94.53
2022-10-07T01:58:25.250Z,94.43
2022-10-07T02:01:33.168Z,94.23
2022-10-07T02:04:40.928Z,93.96
2022-10-07T02:07:49.280Z,94.17
2022-10-07T02:10:56.990Z,94.47
2022-10-07T02:14:04.865Z,94.57
2022-10-07T02:17:12.852Z,94.47
2022-10-07T02:20:20.943Z,94.37
2022-10-07T02:23:28.812Z,94.31
2022-10-07T02:26:36.572Z,94.57
2022-10-07T02:29:44.764Z,94.78
2022-10-07T02:32:52.133Z,94.68
2022-10-07T02:36:00.441Z,94.68
2022-10-07T02:39:08.688Z,94.89
2022-10-07T02:42:16.075Z,94.57
2022-10-07T02:45:26.788Z,94.47
2022-10-07T02:48:34.510Z,94.47
2022-10-07T02:51:41.997Z,94.37
2022-10-07T02:54:50.079Z,94.57
2022-10-07T02:57:57.533Z,94.68
2022-10-07T03:01:05.620Z,94.10
2022-10-07T03:04:13.902Z,94.00
2022-10-07T03:07:21.352Z,94.52
2022-10-07T03:10:29.599Z,94.52
2022-10-07T03:13:37.494Z,94.42
2022-10-07T03:16:45.283Z,94.56
2022-10-07T03:19:53.122Z,94.46
2022-10-07T03:23:01.074Z,94.56
2022-10-07T03:26:09.412Z,95.18
2022-10-07T03:29:17.104Z,95.70
2022-10-07T03:32:24.784Z,95.70
2022-10-07T03:35:32.543Z,95.96
2022-10-07T03:38:39.947Z,95.76
2022-10-07T03:41:48.234Z,95.55
2022-10-07T03:44:56.127Z,95.24
2022-10-07T03:48:03.686Z,95.18
2022-10-07T03:51:11.809Z,95.28
2022-10-07T03:54:19.707Z,95.24
2022-10-07T03:57:27.147Z,95.24
2022-10-07T04:00:35.377Z,95.39
2022-10-07T04:03:43.303Z,95.28
2022-10-07T04:06:50.898Z,95.49
2022-10-07T04:09:59.050Z,95.49
2022-10-07T04:13:06.433Z,95.49
2022-10-07T04:16:14.711Z,95.49
2022-10-07T04:19:22.915Z,95.39
2022-10-07T04:22:30.295Z,95.39
2022-10-07T04:25:38.949Z,95.39
2022-10-07T04:28:47.035Z,95.28
2022-10-07T04:31:54.571Z,95.18
2022-10-07T04:35:02.758Z,95.07
2022-10-07T04:38:10.517Z,95.07
2022-10-07T04:41:18.327Z,94.97
2022-10-07T04:44:26.465Z,94.87
2022-10-07T04:47:34.106Z,94.97
2022-10-07T04:50:41.857Z,94.97
2022-10-07T04:53:53.081Z,94.81
2022-10-07T04:56:53.332Z,94.71
2022-10-07T05:00:00.936Z,95.02
2022-10-07T05:03:08.676Z,95.02
2022-10-07T05:06:16.795Z,95.02
2022-10-07T05:09:24.366Z,95.22
2022-10-07T05:12:32.099Z,95.32
2022-10-07T05:15:39.750Z,95.53
2022-10-07T05:18:47.458Z,95.53
2022-10-07T05:21:55.077Z,95.27
2022-10-07T05:25:02.491Z,95.06
2022-10-07T05:28:10.083Z,95.27
2022-10-07T05:31:18.189Z,95.48
2022-10-07T05:34:25.912Z,95.48
2022-10-07T05:37:33.113Z,95.57
2022-10-07T05:40:41.101Z,95.68
2022-10-07T05:43:48.625Z,95.57
2022-10-07T05:46:55.846Z,95.57
2022-10-07T05:50:03.843Z,95.17
2022-10-07T05:53:11.322Z,94.75
2022-10-07T05:56:18.523Z,94.44
2022-10-07T05:59:26.466Z,94.23
2022-10-07T06:02:33.907Z,94.54
2022-10-07T06:05:41.954Z,94.85
2022-10-07T06:08:49.929Z,95.06
2022-10-07T06:11:57.136Z,95.22
2022-10-07T06:15:04.757Z,95.53
2022-10-07T06:18:12.677Z,95.59
2022-10-07T06:21:19.908Z,95.24
2022-10-07T06:24:27.960Z,94.57
2022-10-07T06:27:36.019Z,94.06
2022-10-07T06:30:44.044Z,93.54
2022-10-07T06:33:52.484Z,93.30
2022-10-07T06:37:00.420Z,92.99
2022-10-07T06:40:08.421Z,92.74
2022-10-07T06:43:16.691Z,92.43
2022-10-07T06:46:24.626Z,92.22
2022-10-07T06:49:32.532Z,92.08
2022-10-07T06:52:43.455Z,91.87
2022-10-07T06:55:41.193Z,91.87
2022-10-07T06:58:49.074Z,91.62
2022-10-07T07:01:56.896Z,91.62
2022-10-07T07:05:05.465Z,91.68
2022-10-07T07:08:13.423Z,91.78
2022-10-07T07:11:21.356Z,91.85
2022-10-07T07:14:29.825Z,91.44
2022-10-07T07:17:37.401Z,90.67
2022-10-07T07:20:45.794Z,90.01
2022-10-07T07:23:53.917Z,89.19
2022-10-07T07:27:01.430Z,89.04
2022-10-07T07:30:09.650Z,88.84
2022-10-07T07:33:17.440Z,88.08
2022-10-07T07:36:25.090Z,87.94
2022-10-07T07:39:33.511Z,88.14
2022-10-07T07:42:41.936Z,88.10
2022-10-07T07:45:49.554Z,88.10
2022-10-07T07:48:58.355Z,87.45
2022-10-07T07:52:06.074Z,87.04
2022-10-07T07:55:13.964Z,87.51
2022-10-07T07:58:22.111Z,87.20
2022-10-07T08:01:30.105Z,87.51
2022-10-07T08:04:37.896Z,87.37
2022-10-07T08:07:46.555Z,86.40
2022-10-07T08:10:54.658Z,87.12
2022-10-07T08:14:02.641Z,86.88
2022-10-07T08:17:10.898Z,86.83
2022-10-07T08:20:19.031Z,86.32
2022-10-07T08:23:27.068Z,86.49
2022-10-07T08:26:34.873Z,86.35
2022-10-07T08:29:43.133Z,86.04
2022-10-07T08:32:51.192Z,86.00
2022-10-07T08:35:59.197Z,83.81
2022-10-07T08:39:07.543Z,82.79
2022-10-07T08:42:15.039Z,81.43
2022-10-07T08:45:23.094Z,81.70
2022-10-07T08:48:31.027Z,80.98
2022-10-07T08:51:38.719Z,81.04
2022-10-07T08:54:47.148Z,81.25
2022-10-07T08:57:55.347Z,80.50
2022-10-07T09:01:02.987Z,78.42
2022-10-07T09:04:11.369Z,78.02
2022-10-07T09:07:19.737Z,78.80
2022-10-07T09:10:27.211Z,77.06
2022-10-07T09:13:35.691Z,77.44
2022-10-07T09:16:43.212Z,76.79
2022-10-07T09:19:51.403Z,78.01
2022-10-07T09:22:59.643Z,78.41
2022-10-07T09:26:07.590Z,76.45
2022-10-07T09:29:15.394Z,75.49
2022-10-07T09:32:23.838Z,74.38
2022-10-07T09:35:31.718Z,75.97
2022-10-07T09:38:39.619Z,73.53
2022-10-07T09:41:47.587Z,74.95
2022-10-07T09:44:55.409Z,73.50
2022-10-07T09:48:03.581Z,75.43
2022-10-07T09:51:11.558Z,74.58
2022-10-07T09:54:19.703Z,73.16
2022-10-07T09:57:27.935Z,72.61
2022-10-07T10:00:35.830Z,70.86
2022-10-07T10:03:43.954Z,70.12
2022-10-07T10:06:51.954Z,69.20
2022-10-07T10:10:00.193Z,70.12
2022-10-07T10:13:08.208Z,69.51
2022-10-07T10:16:16.314Z,69.88
2022-10-07T10:19:24.537Z,70.49
2022-10-07T10:22:32.499Z,69.07
2022-10-07T10:25:40.369Z,68.73
2022-10-07T10:28:48.800Z,67.05
2022-10-07T10:31:56.911Z,67.72
2022-10-07T10:35:04.820Z,66.71
2022-10-07T10:38:13.382Z,66.98
2022-10-07T10:41:20.951Z,65.36
2022-10-07T10:44:28.904Z,66.17
2022-10-07T10:47:37.176Z,68.19
2022-10-07T10:50:44.866Z,66.85
2022-10-07T10:53:53.205Z,65.33
2022-10-07T10:57:01.027Z,66.14
2022-10-07T11:00:09.011Z,65.70
2022-10-07T11:03:17.581Z,65.91
2022-10-07T11:06:25.512Z,66.01
2022-10-07T11:09:33.495Z,64.49
2022-10-07T11:12:41.633Z,67.09
2022-10-07T11:15:49.313Z,66.08
2022-10-07T11:18:57.137Z,65.07
2022-10-07T11:22:04.584Z,63.96
2022-10-07T11:25:12.474Z,64.73
2022-10-07T11:28:20.198Z,63.62
2022-10-07T11:31:27.752Z,64.23
2022-10-07T11:34:35.699Z,62.71
2022-10-07T11:37:43.352Z,62.51
2022-10-07T11:40:50.956Z,63.82
2022-10-07T11:43:58.611Z,65.11
2022-10-07T11:47:06.285Z,62.71
2022-10-07T11:50:14.054Z,63.19
2022-10-07T11:53:22.225Z,61.68
2022-10-07T11:56:29.495Z,63.29
2022-10-07T11:59:37.487Z,62.28
2022-10-07T12:02:45.785Z,61.47
2022-10-07T12:05:53.267Z,62.45
2022-10-07T12:09:01.349Z,61.75
2022-10-07T12:12:08.508Z,60.71
2022-10-07T12:15:16.712Z,59.80
2022-10-07T12:18:24.841Z,59.70
2022-10-07T12:21:32.104Z,59.30
2022-10-07T12:24:40.195Z,59.00
2022-10-07T12:27:47.876Z,60.31
2022-10-07T12:30:55.127Z,59.73
2022-10-07T12:34:03.010Z,59.25
2022-10-07T12:37:11.030Z,60.16
2022-10-07T12:40:18.319Z,60.66
2022-10-07T12:43:26.188Z,60.74
2022-10-07T12:46:33.721Z,60.84
2022-10-07T12:49:41.192Z,60.84
2022-10-07T12:52:49.289Z,60.74
2022-10-07T12:55:56.884Z,61.52
2022-10-07T12:59:04.525Z,60.21
2022-10-07T13:02:12.570Z,60.68
2022-10-07T13:05:20.166Z,60.98
2022-10-07T13:08:27.863Z,61.08
2022-10-07T13:11:36.108Z,60.88
2022-10-07T13:14:43.867Z,62.19
2022-10-07T13:17:51.640Z,61.32
2022-10-07T13:20:59.411Z,59.60
2022-10-07T13:24:07.518Z,61.32
2022-10-07T13:27:15.504Z,60.91
2022-10-07T13:30:23.206Z,59.93
2022-10-07T13:33:31.457Z,61.04
2022-10-07T13:36:39.316Z,59.93
2022-10-07T13:39:47.007Z,60.03
2022-10-07T13:42:54.827Z,61.07
2022-10-07T13:46:02.482Z,60.57
2022-10-07T13:49:10.652Z,59.56
2022-10-07T13:52:18.541Z,59.86
2022-10-07T13:55:26.345Z,60.57
2022-10-07T13:58:34.448Z,60.06
2022-10-07T14:01:42.279Z,61.07
2022-10-07T14:04:49.897Z,60.66
2022-10-07T14:07:57.937Z,58.85
2022-10-07T14:11:05.322Z,58.65
2022-10-07T14:14:13.516Z,58.85
2022-10-07T14:17:21.726Z,58.32
2022-10-07T14:20:29.087Z,57.81
2022-10-07T14:23:37.421Z,58.12
2022-10-07T14:26:45.362Z,58.42
2022-10-07T14:29:52.732Z,58.22
2022-10-07T14:33:00.865Z,57.41
2022-10-07T14:36:09.035Z,58.22
2022-10-07T14:39:16.305Z,57.98
2022-10-07T14:42:24.776Z,58.49
2022-10-07T14:45:32.729Z,57.58
2022-10-07T14:48:40.507Z,57.48
2022-10-07T14:51:48.731Z,58.39
2022-10-07T14:54:56.165Z,58.19
2022-10-07T14:58:03.913Z,57.28
2022-10-07T15:01:12.372Z,57.08
2022-10-07T15:04:20.389Z,57.71
2022-10-07T15:07:28.389Z,59.33
2022-10-07T15:10:36.186Z,58.52
2022-10-07T15:13:44.377Z,59.96
2022-10-07T15:16:52.266Z,59.66
2022-10-07T15:20:00.048Z,59.96
2022-10-07T15:23:07.857Z,59.45
2022-10-07T15:26:15.746Z,59.96
2022-10-07T15:29:23.373Z,58.98
2022-10-07T15:32:31.744Z,60.29
2022-10-07T15:35:39.026Z,61.60
2022-10-07T15:38:47.303Z,61.03
2022-10-07T15:41:55.294Z,61.73
2022-10-07T15:45:02.599Z,61.66
2022-10-07T15:48:10.734Z,61.90
2022-10-07T15:51:19.058Z,62.60
2022-10-07T15:54:26.430Z,62.84
2022-10-07T15:57:34.272Z,62.93
2022-10-07T16:00:41.600Z,63.87
2022-10-07T16:03:49.642Z,63.57
2022-10-07T16:06:57.799Z,63.70
2022-10-07T16:10:07.555Z,64.92
2022-10-07T16:13:08.037Z,66.16
2022-10-07T16:16:15.994Z,67.79
2022-10-07T16:19:23.837Z,73.39
2022-10-07T16:22:32.359Z,74.98
2022-10-07T16:25:40.498Z,74.41
2022-10-07T16:28:48.171Z,75.36
2022-10-07T16:31:58.886Z,75.60
2022-10-07T16:34:56.332Z,77.26
2022-10-07T16:38:04.162Z,77.91
2022-10-07T16:41:11.973Z,77.81
2022-10-07T16:44:19.673Z,78.35
2022-10-07T16:47:27.196Z,77.98
2022-10-07T16:50:34.525Z,78.69
2022-10-07T16:53:42.125Z,79.14
2022-10-07T16:56:49.923Z,79.27
2022-10-07T16:59:57.397Z,79.79
2022-10-07T17:03:05.618Z,80.60
2022-10-07T17:06:13.429Z,81.15
2022-10-07T17:09:21.169Z,81.04
2022-10-07T17:12:29.052Z,81.56
2022-10-07T17:15:36.457Z,82.31
2022-10-07T17:18:44.742Z,82.71
2022-10-07T17:21:53.208Z,83.53
2022-10-07T17:25:01.163Z,83.16
2022-10-07T17:28:09.217Z,83.98
2022-10-07T17:31:17.320Z,84.22
2022-10-07T17:34:25.096Z,83.71
2022-10-07T17:37:32.929Z,84.26
2022-10-07T17:40:40.811Z,84.98
2022-10-07T17:43:48.675Z,85.08
2022-10-07T17:46:56.866Z,85.08
2022-10-07T17:50:04.923Z,85.59
2022-10-07T17:53:12.710Z,85.12
2022-10-07T17:56:20.879Z,85.02
2022-10-07T17:59:28.853Z,85.47
2022-10-07T18:02:36.263Z,86.08
2022-10-07T18:05:44.056Z,86.29
2022-10-07T18:08:52.322Z,86.79
2022-10-07T18:11:59.814Z,87.30
2022-10-07T18:15:07.725Z,87.65
2022-10-07T18:18:15.838Z,87.76
2022-10-07T18:21:24.197Z,87.85
2022-10-07T18:24:32.139Z,88.17
2022-10-07T18:27:40.379Z,88.00
2022-10-07T18:30:47.937Z,88.92
2022-10-07T18:33:56.933Z,89.03
2022-10-07T18:37:05.182Z,89.33
2022-10-07T18:40:12.666Z,89.47
2022-10-07T18:43:21.061Z,89.58
2022-10-07T18:46:28.882Z,89.68
2022-10-07T18:49:36.499Z,89.58
2022-10-07T18:52:44.852Z,89.58
2022-10-07T18:55:52.524Z,89.37
2022-10-07T18:59:00.624Z,89.62
2022-10-07T19:02:08.775Z,90.23
2022-10-07T19:05:16.421Z,90.44
2022-10-07T19:08:24.407Z,90.23
2022-10-07T19:11:32.299Z,90.54
2022-10-07T19:14:40.258Z,90.58
2022-10-07T19:17:48.754Z,90.69
2022-10-07T19:20:56.967Z,90.99
2022-10-07T19:24:05.223Z,90.79
2022-10-07T19:27:13.160Z,90.28
2022-10-07T19:30:21.060Z,90.17
2022-10-07T19:33:29.338Z,90.37
2022-10-07T19:36:37.084Z,90.69
2022-10-07T19:39:44.789Z,90.37
2022-10-07T19:42:53.114Z,90.32
2022-10-07T19:46:00.538Z,90.62
2022-10-07T19:49:08.786Z,90.73
2022-10-07T19:52:16.426Z,91.03
2022-10-07T19:55:23.921Z,91.03
2022-10-07T19:58:32.024Z,90.67
2022-10-07T20:01:39.911Z,91.08
2022-10-07T20:04:47.290Z,91.18
2022-10-07T20:07:55.429Z,91.38
2022-10-07T20:11:02.780Z,91.28
2022-10-07T20:14:10.998Z,90.97
2022-10-07T20:17:19.033Z,90.52
2022-10-07T20:20:26.506Z,90.22
2022-10-07T20:23:34.624Z,90.01
2022-10-07T20:26:42.765Z,89.43
2022-10-07T20:29:50.165Z,89.54
2022-10-07T20:32:58.398Z,89.43
2022-10-07T20:36:05.945Z,89.75
2022-10-07T20:39:14.229Z,89.84
2022-10-07T20:42:21.993Z,89.99
2022-10-07T20:45:29.450Z,90.30
2022-10-07T20:48:39.370Z,90.30
2022-10-07T20:51:39.755Z,90.61
2022-10-07T20:54:47.146Z,90.71
2022-10-07T20:57:55.370Z,90.09
2022-10-07T21:01:03.351Z,90.20
2022-10-07T21:04:11.275Z,90.71
2022-10-07T21:07:19.353Z,90.44
2022-10-07T21:10:27.243Z,90.44
2022-10-07T21:13:34.965Z,90.95
2022-10-07T21:16:43.168Z,91.06
2022-10-07T21:19:50.896Z,91.47
2022-10-07T21:22:58.748Z,91.31
2022-10-07T21:26:06.530Z,91.20
2022-10-07T21:29:14.917Z,91.41
2022-10-07T21:32:22.903Z,91.41
2022-10-07T21:35:30.669Z,92.07
2022-10-07T21:38:38.805Z,92.79
2022-10-07T21:41:46.578Z,93.51
2022-10-07T21:44:54.471Z,94.12
2022-10-07T21:48:02.534Z,93.65
2022-10-07T21:51:10.063Z,94.27
2022-10-07T21:54:17.833Z,94.07
2022-10-07T21:57:26.223Z,94.27
2022-10-07T22:00:33.709Z,94.48
2022-10-07T22:03:41.876Z,94.07
2022-10-07T22:06:50.176Z,93.86
2022-10-07T22:09:57.636Z,93.70
2022-10-07T22:13:06.040Z,94.11
2022-10-07T22:16:13.820Z,94.31
2022-10-07T22:19:21.191Z,94.62
2022-10-07T22:22:29.219Z,94.93
2022-10-07T22:25:37.044Z,94.83
2022-10-07T22:28:44.810Z,94.52
2022-10-07T22:31:52.694Z,94.21
2022-10-07T22:35:00.340Z,94.89
2022-10-07T22:38:08.155Z,94.58
2022-10-07T22:41:16.456Z,94.27
2022-10-07T22:44:16.458Z,94.54
2022-10-07T22:47:24.312Z,94.08
2022-10-07T22:50:31.628Z,93.10
2022-10-07T22:53:39.726Z,93.36
2022-10-07T22:56:47.521Z,93.57
2022-10-07T22:59:55.292Z,93.42
2022-10-07T23:03:03.002Z,92.86
2022-10-07T23:06:11.192Z,92.21
2022-10-07T23:09:19.180Z,91.49
2022-10-07T23:12:26.997Z,91.38
2022-10-07T23:15:35.231Z,91.28
2022-10-07T23:18:43.188Z,91.08
2022-10-07T23:21:50.588Z,90.56
2022-10-07T23:24:58.300Z,90.26
2022-10-07T23:28:06.672Z,90.09
2022-10-07T23:31:14.589Z,90.24
2022-10-07T23:34:22.573Z,90.48
2022-10-07T23:37:30.822Z,91.61
2022-10-07T23:40:38.666Z,92.17
2022-10-07T23:43:46.448Z,92.99
2022-10-07T23:46:54.572Z,93.55
2022-10-07T23:50:02.029Z,93.14
2022-10-07T23:53:09.907Z,93.39
2022-10-07T23:56:18.039Z,93.59
2022-10-07T23:59:25.551Z,93.95
